createdAt,value
2018-06-05T00:11:55.612Z,0.40
2018-06-05T00:14:26.046Z,0.60
2018-06-05T00:17:03.843Z,0.47
2018-06-05T00:49:45.540Z,0.20
2018-06-05T00:52:17.944Z,0.40
2018-06-05T01:00:44.280Z,0.50
2018-06-05T01:03:19.734Z,0.30
2018-06-05T01:08:47.925Z,0.47
2018-06-05T01:36:31.857Z,0.50
2018-06-05T01:39:08.894Z,0.37
2018-06-05T01:46:52.815Z,0.43
2018-06-05T01:49:34.197Z,0.37
2018-06-05T02:12:12.979Z,0.30
2018-06-05T02:20:15.788Z,0.40
2018-06-05T02:22:54.201Z,0.30
2018-06-05T02:56:54.956Z,0.37
2018-06-05T03:10:21.522Z,0.20
2018-06-05T03:12:55.125Z,0.30
2018-06-05T03:15:38.142Z,0.20
2018-06-05T03:18:14.407Z,0.40
2018-06-05T03:20:52.817Z,0.30
2018-06-05T03:23:27.035Z,0.33
2018-06-05T03:25:58.626Z,0.47
2018-06-05T03:52:28.439Z,0.47
2018-06-05T03:58:02.557Z,0.47
2018-06-05T04:00:50.691Z,0.30
2018-06-05T04:09:23.627Z,0.13
2018-06-05T04:11:52.584Z,0.13
2018-06-05T04:14:21.338Z,0.30
2018-06-05T04:16:51.994Z,0.30
2018-06-05T04:19:21.342Z,0.30
2018-06-05T04:21:50.404Z,0.50
2018-06-05T04:24:27.907Z,0.20
2018-06-05T04:27:08.472Z,0.40
2018-06-05T04:29:38.284Z,0.40
2018-06-05T04:32:12.376Z,0.30
2018-06-05T04:38:12.098Z,0.33
2018-06-05T04:46:46.632Z,0.67
2018-06-05T05:15:04.750Z,0.73
2018-06-05T05:21:58.524Z,0.93
2018-06-05T05:24:49.078Z,0.63
2018-06-05T07:04:38.545Z,0.30
2018-06-05T08:44:48.688Z,0.40
2018-06-05T08:47:18.295Z,0.57
2018-06-05T08:49:52.921Z,0.73
2018-06-05T09:42:13.944Z,0.30
2018-06-05T09:44:43.856Z,0.33
2018-06-05T09:47:19.046Z,0.17
2018-06-05T13:32:40.989Z,0.10
2018-06-05T13:35:10.155Z,0.10
2018-06-05T13:37:39.712Z,0.10
2018-06-05T13:40:08.470Z,0.30
2018-06-05T13:42:37.107Z,0.10
2018-06-05T13:45:05.853Z,0.13
2018-06-05T13:47:35.006Z,0.17
2018-06-05T13:50:05.181Z,0.40
2018-06-05T14:40:39.523Z,0.27
2018-06-05T14:43:07.854Z,0.30
2018-06-05T14:45:35.974Z,0.17
2018-06-05T14:48:04.186Z,0.10
2018-06-05T14:50:32.544Z,0.10
2018-06-05T14:53:01.064Z,0.20
2018-06-05T14:55:29.327Z,0.20
2018-06-05T14:57:57.495Z,0.30
2018-06-05T15:00:26.916Z,0.40
2018-06-05T15:02:55.831Z,0.20
2018-06-05T15:05:24.182Z,0.10
2018-06-05T15:07:52.463Z,0.30
2018-06-05T15:10:20.664Z,0.20
2018-06-05T15:12:48.961Z,0.10
2018-06-05T15:36:40.980Z,0.23
2018-06-05T15:53:41.099Z,0.47
2018-06-05T15:56:11.601Z,0.40
2018-06-05T16:01:47.732Z,0.30
2018-06-05T16:07:01.584Z,0.30
2018-06-05T17:24:40.805Z,0.40
2018-06-05T18:13:25.923Z,0.23
2018-06-05T18:25:00.747Z,0.20
2018-06-05T18:41:03.399Z,0.40
2018-06-05T18:46:43.754Z,0.40
2018-06-05T18:49:27.285Z,0.30
2018-06-05T19:03:52.820Z,0.33
2018-06-05T19:07:08.279Z,0.40
2018-06-05T19:09:41.552Z,0.40
2018-06-05T19:12:13.014Z,0.50
2018-06-05T19:26:14.375Z,0.50
2018-06-05T19:36:50.314Z,0.47
2018-06-05T19:44:06.620Z,0.43
2018-06-05T19:47:02.196Z,0.70
2018-06-05T19:49:44.162Z,0.60
2018-06-05T20:15:30.093Z,0.40
2018-06-05T20:26:49.087Z,0.90
2018-06-05T20:35:06.620Z,0.80
2018-06-05T20:37:57.015Z,0.70
2018-06-05T20:45:08.147Z,0.73
2018-06-05T20:47:39.520Z,0.70
2018-06-05T20:52:55.167Z,0.90
2018-06-05T20:55:47.319Z,0.83
2018-06-05T20:58:17.753Z,1.10
2018-06-05T21:00:50.738Z,1.17
2018-06-05T21:03:20.860Z,0.90
2018-06-05T21:06:05.519Z,0.70
2018-06-05T21:08:34.616Z,1.00
2018-06-05T21:11:04.449Z,1.10
2018-06-05T21:13:33.535Z,0.70
2018-06-05T21:16:02.942Z,0.80
2018-06-05T21:18:40.429Z,1.00
2018-06-05T21:21:09.425Z,0.83
2018-06-05T21:23:39.241Z,0.60
2018-06-05T21:26:08.681Z,0.60
2018-06-05T21:31:11.352Z,0.80
2018-06-05T21:39:19.684Z,0.80
2018-06-05T21:41:49.603Z,0.77
2018-06-05T21:44:18.870Z,1.80
2018-06-05T21:46:55.237Z,2.13
2018-06-05T21:49:26.257Z,1.83
2018-06-05T21:51:56.237Z,1.30
2018-06-05T21:54:28.534Z,1.00
2018-06-05T21:56:58.017Z,1.37
2018-06-05T21:59:26.912Z,1.27
2018-06-05T22:01:55.936Z,1.93
2018-06-05T22:04:25.066Z,1.50
2018-06-05T22:06:57.589Z,1.23
2018-06-05T22:09:26.895Z,1.73
2018-06-05T22:11:55.992Z,1.50
2018-06-05T22:14:24.989Z,1.37
2018-06-05T22:17:18.955Z,1.50
2018-06-05T22:20:15.081Z,1.60
2018-06-05T22:22:44.402Z,1.60
2018-06-05T22:25:16.956Z,1.60
2018-06-05T22:27:45.900Z,1.63
2018-06-05T22:30:15.020Z,1.30
2018-06-05T22:32:44.152Z,1.10
2018-06-05T22:35:13.404Z,0.70
2018-06-05T22:37:42.259Z,0.60
2018-06-05T22:40:11.400Z,0.77
2018-06-05T22:42:40.246Z,0.60
2018-06-05T22:45:09.754Z,0.77
2018-06-05T22:47:51.591Z,1.00
2018-06-05T22:50:20.434Z,0.70
2018-06-05T22:52:55.738Z,0.77
2018-06-05T22:55:29.686Z,0.90
2018-06-05T22:57:58.796Z,0.60
2018-06-05T23:00:36.717Z,1.10
2018-06-05T23:05:53.946Z,1.00
2018-06-05T23:08:23.020Z,0.80
2018-06-05T23:10:52.226Z,0.70
2018-06-05T23:13:24.506Z,0.80
2018-06-05T23:15:58.506Z,0.80
2018-06-05T23:18:58.617Z,0.87
2018-06-05T23:21:27.302Z,0.80
2018-06-05T23:23:57.435Z,1.00
2018-06-05T23:26:26.886Z,0.80
2018-06-05T23:28:57.467Z,0.80
2018-06-05T23:31:27.896Z,0.60
2018-06-05T23:38:47.831Z,0.60
2018-06-05T23:41:16.930Z,0.80
2018-06-05T23:43:45.823Z,0.53
2018-06-05T23:46:14.956Z,0.80
2018-06-05T23:48:44.946Z,0.73
2018-06-05T23:51:13.841Z,0.60
2018-06-05T23:53:45.970Z,0.70
2018-06-05T23:56:15.211Z,0.80
2018-06-05T23:58:44.838Z,0.90
